Time;durP1;ratioP1;P1;durP2;ratioP2;P2;SDS_P1;SDS_P2;PMS_P1;PMS_P2;Temp;Humidity;BMP_temperature;BMP_pressure;BME280_temperature;BME280_humidity;BME280_pressure;Samples;Min_cycle;Max_cycle;Signal;HPM_P1;HPM_P2
2023/09/28 00:02:07;;;;;;;12.13;11.10;;;;;;;;;;5056612;28;20789;-63
2023/09/28 00:04:34;;;;;;;13.03;11.80;;;;;;;;;;5056696;28;20911;-63
2023/09/28 00:07:01;;;;;;;12.00;11.00;;;;;;;;;;5056554;28;20484;-63
2023/09/28 00:09:29;;;;;;;12.50;11.40;;;;;;;;;;5056559;28;20479;-63
2023/09/28 00:11:55;;;;;;;13.93;12.53;;;;;;;;;;5056436;28;20951;-63
2023/09/28 00:14:21;;;;;;;11.50;10.50;;;;;;;;;;5056311;28;20448;-63
2023/09/28 00:16:49;;;;;;;12.77;11.67;;;;;;;;;;5056359;28;20547;-64
2023/09/28 00:19:15;;;;;;;11.33;10.43;;;;;;;;;;5056602;28;20444;-63
2023/09/28 00:21:42;;;;;;;12.97;11.40;;;;;;;;;;5056350;28;20786;-63
2023/09/28 00:24:09;;;;;;;12.20;11.10;;;;;;;;;;5056376;28;20452;-63
2023/09/28 00:26:38;;;;;;;14.43;11.77;;;;;;;;;;5056095;28;20471;-63
2023/09/28 00:29:04;;;;;;;11.47;10.30;;;;;;;;;;5056050;28;20440;-63
2023/09/28 00:31:31;;;;;;;13.43;12.33;;;;;;;;;;5055898;28;20458;-63
2023/09/28 00:33:59;;;;;;;11.77;10.87;;;;;;;;;;5056109;28;20808;-64
2023/09/28 00:36:26;;;;;;;13.30;10.80;;;;;;;;;;5055807;28;20500;-64
2023/09/28 00:38:52;;;;;;;12.73;11.60;;;;;;;;;;5055952;28;20484;-65
2023/09/28 00:41:20;;;;;;;12.27;11.27;;;;;;;;;;5055950;28;20491;-63
2023/09/28 00:43:47;;;;;;;12.13;11.03;;;;;;;;;;5055764;28;20813;-63
2023/09/28 00:46:16;;;;;;;12.40;11.20;;;;;;;;;;5055898;28;20452;-63
2023/09/28 00:48:47;;;;;;;11.43;10.53;;;;;;;;;;5055888;28;20448;-63
2023/09/28 00:51:14;;;;;;;12.43;11.43;;;;;;;;;;5055869;28;20456;-63
2023/09/28 00:53:41;;;;;;;11.90;10.87;;;;;;;;;;5055760;28;20532;-63
2023/09/28 00:56:08;;;;;;;11.73;10.67;;;;;;;;;;5055646;28;20876;-63
2023/09/28 00:58:37;;;;;;;11.00;10.10;;;;;;;;;;5055588;28;20939;-63
2023/09/28 01:01:06;;;;;;;12.90;11.70;;;;;;;;;;5055670;28;20460;-63
2023/09/28 01:03:34;;;;;;;12.90;11.20;;;;;;;;;;5055611;28;20995;-63
2023/09/28 01:06:05;;;;;;;12.63;11.33;;;;;;;;;;5055514;28;20452;-63
2023/09/28 01:08:31;;;;;;;11.73;10.70;;;;;;;;;;5054777;28;20475;-63
2023/09/28 01:10:58;;;;;;;12.93;11.73;;;;;;;;;;5055389;28;20510;-63
2023/09/28 01:13:25;;;;;;;11.43;10.43;;;;;;;;;;5055220;28;20944;-63
2023/09/28 01:15:53;;;;;;;12.43;11.23;;;;;;;;;;5055439;28;20518;-63
2023/09/28 01:18:22;;;;;;;13.23;11.97;;;;;;;;;;5055213;28;20452;-63
2023/09/28 01:20:51;;;;;;;12.30;11.10;;;;;;;;;;5055196;28;20456;-64
2023/09/28 01:23:19;;;;;;;11.97;10.87;;;;;;;;;;5055135;28;20452;-64
2023/09/28 01:25:47;;;;;;;12.37;11.27;;;;;;;;;;5055279;28;20452;-64
2023/09/28 01:28:13;;;;;;;13.40;12.30;;;;;;;;;;5054937;28;20825;-64
2023/09/28 01:30:40;;;;;;;14.80;11.13;;;;;;;;;;5054951;28;20958;-64
2023/09/28 01:33:09;;;;;;;12.47;11.13;;;;;;;;;;5054878;28;20999;-64
2023/09/28 01:35:35;;;;;;;12.20;11.03;;;;;;;;;;5054729;28;20978;-64
2023/09/28 01:38:06;;;;;;;20.33;12.07;;;;;;;;;;5054764;28;20472;-64
2023/09/28 01:40:35;;;;;;;12.87;11.40;;;;;;;;;;5054980;28;20464;-64
2023/09/28 01:43:01;;;;;;;13.17;11.87;;;;;;;;;;5054869;28;20448;-64
2023/09/28 01:45:27;;;;;;;12.07;10.97;;;;;;;;;;5054822;28;20463;-64
2023/09/28 01:47:54;;;;;;;13.70;12.43;;;;;;;;;;5054573;28;20563;-64
2023/09/28 01:50:21;;;;;;;11.17;10.27;;;;;;;;;;5054530;28;20452;-64
2023/09/28 01:52:47;;;;;;;11.30;10.40;;;;;;;;;;5054819;28;20451;-64
2023/09/28 01:55:14;;;;;;;10.90;10.10;;;;;;;;;;5054710;28;20679;-64
2023/09/28 01:57:42;;;;;;;13.77;12.00;;;;;;;;;;5054634;28;20448;-64
2023/09/28 02:00:14;;;;;;;11.40;10.47;;;;;;;;;;5054520;28;20444;-64
2023/09/28 02:02:41;;;;;;;10.73;9.77;;;;;;;;;;5054403;28;20491;-64
2023/09/28 02:05:07;;;;;;;11.37;10.47;;;;;;;;;;5054280;28;20734;-64
2023/09/28 02:07:34;;;;;;;11.77;10.67;;;;;;;;;;5054339;28;20557;-64
2023/09/28 02:10:00;;;;;;;12.50;11.40;;;;;;;;;;5054352;28;20875;-64
2023/09/28 02:12:28;;;;;;;11.07;10.10;;;;;;;;;;5054227;28;20491;-64
2023/09/28 02:14:55;;;;;;;12.27;11.00;;;;;;;;;;5054116;28;20454;-64
2023/09/28 02:17:22;;;;;;;11.40;10.50;;;;;;;;;;5054004;28;20468;-64
2023/09/28 02:19:48;;;;;;;12.67;11.47;;;;;;;;;;5053199;28;20450;-64
2023/09/28 02:22:15;;;;;;;11.83;10.73;;;;;;;;;;5054130;28;20488;-64
2023/09/28 02:24:41;;;;;;;12.97;11.57;;;;;;;;;;5054126;28;20531;-64
2023/09/28 02:27:08;;;;;;;14.50;11.00;;;;;;;;;;5053915;28;20566;-64
2023/09/28 02:29:34;;;;;;;12.97;11.77;;;;;;;;;;5053775;28;20441;-64
2023/09/28 02:32:02;;;;;;;13.77;12.50;;;;;;;;;;5053731;28;20456;-64
2023/09/28 02:34:29;;;;;;;12.30;11.30;;;;;;;;;;5053711;28;20936;-64
2023/09/28 02:36:55;;;;;;;12.27;11.07;;;;;;;;;;5053682;28;20555;-64
2023/09/28 02:39:22;;;;;;;11.83;10.80;;;;;;;;;;5053886;28;20543;-64
2023/09/28 02:41:49;;;;;;;12.40;11.30;;;;;;;;;;5053704;28;20440;-64
2023/09/28 02:44:16;;;;;;;12.13;11.13;;;;;;;;;;5053607;28;20460;-64
2023/09/28 02:46:42;;;;;;;11.37;10.27;;;;;;;;;;5053428;28;20531;-64
2023/09/28 02:49:10;;;;;;;11.47;10.57;;;;;;;;;;5053671;28;20543;-64
2023/09/28 02:51:36;;;;;;;12.93;11.83;;;;;;;;;;5053652;28;20535;-63
2023/09/28 02:54:04;;;;;;;10.90;10.00;;;;;;;;;;5053537;28;20895;-64
2023/09/28 02:56:30;;;;;;;12.17;11.13;;;;;;;;;;5053547;28;20661;-64
2023/09/28 02:58:57;;;;;;;12.20;11.00;;;;;;;;;;5053387;28;20461;-64
2023/09/28 03:01:26;;;;;;;11.63;10.50;;;;;;;;;;5053605;28;20936;-64
2023/09/28 03:03:53;;;;;;;11.20;10.20;;;;;;;;;;5053422;28;20460;-64
2023/09/28 03:06:20;;;;;;;10.50;9.60;;;;;;;;;;5053296;28;20558;-64
2023/09/28 03:08:47;;;;;;;11.10;9.90;;;;;;;;;;5053251;28;20519;-64
2023/09/28 03:11:13;;;;;;;12.80;11.60;;;;;;;;;;5053265;28;20448;-64
2023/09/28 03:13:40;;;;;;;10.40;9.50;;;;;;;;;;5053110;28;20513;-63
2023/09/28 03:16:07;;;;;;;11.70;10.00;;;;;;;;;;5053346;28;20551;-64
2023/09/28 03:18:34;;;;;;;12.00;10.80;;;;;;;;;;5053221;28;20535;-64
2023/09/28 03:21:00;;;;;;;11.43;10.43;;;;;;;;;;5053475;28;20440;-64
2023/09/28 03:23:28;;;;;;;11.77;10.67;;;;;;;;;;5052943;28;20535;-64
2023/09/28 03:25:56;;;;;;;11.63;10.53;;;;;;;;;;5053034;28;20807;-64
2023/09/28 03:28:23;;;;;;;13.83;11.13;;;;;;;;;;5052810;28;20908;-64
2023/09/28 03:30:49;;;;;;;12.23;11.10;;;;;;;;;;5052738;28;20448;-64
2023/09/28 03:33:16;;;;;;;12.43;11.23;;;;;;;;;;5053080;28;20471;-64
2023/09/28 03:35:42;;;;;;;13.13;11.70;;;;;;;;;;5052986;28;20444;-64
2023/09/28 03:38:09;;;;;;;12.80;11.50;;;;;;;;;;5052721;28;20491;-64
2023/09/28 03:40:38;;;;;;;13.10;11.70;;;;;;;;;;5052775;28;20491;-64
2023/09/28 03:43:05;;;;;;;12.67;11.40;;;;;;;;;;5052779;28;20524;-64
2023/09/28 03:45:33;;;;;;;12.83;10.63;;;;;;;;;;5052994;28;20483;-63
2023/09/28 03:48:00;;;;;;;13.63;11.43;;;;;;;;;;5052816;28;20488;-63
2023/09/28 03:50:27;;;;;;;12.40;11.30;;;;;;;;;;5052752;28;20807;-64
2023/09/28 03:52:55;;;;;;;12.17;10.93;;;;;;;;;;5052697;28;20440;-64
2023/09/28 03:55:23;;;;;;;13.60;10.63;;;;;;;;;;5052660;28;20479;-64
2023/09/28 03:57:51;;;;;;;11.50;10.30;;;;;;;;;;5052841;28;20808;-64
2023/09/28 04:00:19;;;;;;;14.73;11.27;;;;;;;;;;5052779;28;20444;-64
2023/09/28 04:02:47;;;;;;;12.40;10.83;;;;;;;;;;5052705;28;20445;-64
2023/09/28 04:05:14;;;;;;;14.20;10.90;;;;;;;;;;5052581;28;20448;-64
2023/09/28 04:07:41;;;;;;;11.07;10.10;;;;;;;;;;5052400;28;20843;-64
2023/09/28 04:10:10;;;;;;;11.73;10.53;;;;;;;;;;5052421;28;20452;-63
2023/09/28 04:12:37;;;;;;;11.20;10.23;;;;;;;;;;5052674;28;20445;-64
2023/09/28 04:15:07;;;;;;;11.00;10.10;;;;;;;;;;5052629;28;21007;-64
2023/09/28 04:17:35;;;;;;;12.50;10.70;;;;;;;;;;5052429;28;20440;-64
2023/09/28 04:20:04;;;;;;;11.13;10.10;;;;;;;;;;5052440;28;20444;-64
2023/09/28 04:22:31;;;;;;;12.00;10.50;;;;;;;;;;5052360;28;20526;-64
2023/09/28 04:24:58;;;;;;;10.90;9.80;;;;;;;;;;5052564;28;20455;-64
2023/09/28 04:27:25;;;;;;;10.33;9.40;;;;;;;;;;5052279;28;20559;-64
2023/09/28 04:29:52;;;;;;;10.70;9.70;;;;;;;;;;5052387;28;20507;-64
2023/09/28 04:32:21;;;;;;;10.97;9.97;;;;;;;;;;5052297;28;20498;-64
2023/09/28 04:34:48;;;;;;;11.90;10.70;;;;;;;;;;5052205;28;20451;-64
2023/09/28 04:37:16;;;;;;;11.70;10.50;;;;;;;;;;5052095;28;20468;-64
2023/09/28 04:39:44;;;;;;;15.37;11.30;;;;;;;;;;5052330;28;20436;-63
2023/09/28 04:42:12;;;;;;;12.67;10.07;;;;;;;;;;5053344;28;20547;-63
2023/09/28 04:44:43;;;;;;;11.80;10.70;;;;;;;;;;5056249;28;20515;-63
2023/09/28 04:47:10;;;;;;;11.03;9.93;;;;;;;;;;5055772;28;20479;-63
2023/09/28 04:49:40;;;;;;;10.83;9.90;;;;;;;;;;5055595;28;20513;-63
2023/09/28 04:52:07;;;;;;;12.80;11.13;;;;;;;;;;5055909;28;20480;-63
2023/09/28 04:54:52;;;;;;;10.87;9.77;;;;;;;;;;5055744;28;20444;-64
2023/09/28 04:57:20;;;;;;;10.90;10.00;;;;;;;;;;5055594;28;20476;-64
2023/09/28 04:59:47;;;;;;;11.73;10.53;;;;;;;;;;5055483;28;20443;-64
2023/09/28 05:02:13;;;;;;;9.70;8.80;;;;;;;;;;5055453;28;20547;-64
2023/09/28 05:04:42;;;;;;;16.30;10.33;;;;;;;;;;5055525;28;20530;-64
2023/09/28 05:07:09;;;;;;;9.80;8.90;;;;;;;;;;5055465;28;20531;-64
2023/09/28 05:09:38;;;;;;;10.70;9.60;;;;;;;;;;5055300;28;20971;-63
2023/09/28 05:12:05;;;;;;;10.90;9.63;;;;;;;;;;5055297;28;20450;-63
2023/09/28 05:14:32;;;;;;;10.47;9.53;;;;;;;;;;5055121;28;20445;-63
2023/09/28 05:16:59;;;;;;;13.30;9.93;;;;;;;;;;5055350;28;20444;-63
2023/09/28 05:19:26;;;;;;;14.40;10.80;;;;;;;;;;5055335;28;20467;-63
2023/09/28 05:21:55;;;;;;;10.83;9.43;;;;;;;;;;5055250;28;20513;-64
2023/09/28 05:24:22;;;;;;;11.10;10.00;;;;;;;;;;5054897;28;20441;-63
2023/09/28 05:26:49;;;;;;;10.70;9.80;;;;;;;;;;5054964;28;20448;-64
2023/09/28 05:29:16;;;;;;;16.57;11.43;;;;;;;;;;5054781;28;20570;-64
2023/09/28 05:31:43;;;;;;;11.37;10.10;;;;;;;;;;5055035;28;20529;-64
2023/09/28 05:34:10;;;;;;;11.37;10.10;;;;;;;;;;5055029;28;20502;-64
2023/09/28 05:36:37;;;;;;;10.87;9.70;;;;;;;;;;5054632;28;20444;-64
2023/09/28 05:39:08;;;;;;;11.30;10.30;;;;;;;;;;5054788;28;20448;-64
2023/09/28 05:41:35;;;;;;;11.10;9.60;;;;;;;;;;5054675;28;20448;-64
2023/09/28 05:44:02;;;;;;;12.47;10.00;;;;;;;;;;5054885;28;20796;-65
2023/09/28 05:46:29;;;;;;;16.90;9.47;;;;;;;;;;5054720;28;20535;-64
2023/09/28 05:48:56;;;;;;;14.40;10.37;;;;;;;;;;5054597;28;20524;-64
2023/09/28 05:51:23;;;;;;;11.73;9.87;;;;;;;;;;5054603;28;20448;-64
2023/09/28 05:53:53;;;;;;;15.27;9.57;;;;;;;;;;5054260;28;20502;-64
2023/09/28 05:56:21;;;;;;;10.17;9.27;;;;;;;;;;5054340;28;20455;-64
2023/09/28 05:58:48;;;;;;;11.10;10.00;;;;;;;;;;5054246;28;21024;-64
2023/09/28 06:01:17;;;;;;;14.77;9.77;;;;;;;;;;5054476;28;20635;-64
2023/09/28 06:03:44;;;;;;;8.77;7.93;;;;;;;;;;5054398;28;20448;-64
2023/09/28 06:06:15;;;;;;;10.40;9.30;;;;;;;;;;5054348;28;20539;-64
2023/09/28 06:08:42;;;;;;;8.80;8.03;;;;;;;;;;5053980;28;20593;-64
2023/09/28 06:11:12;;;;;;;9.77;8.67;;;;;;;;;;5054270;28;20554;-64
2023/09/28 06:13:41;;;;;;;13.13;8.30;;;;;;;;;;5054268;28;20452;-64
2023/09/28 06:16:08;;;;;;;11.23;9.07;;;;;;;;;;5054087;28;20531;-64
2023/09/28 06:18:35;;;;;;;11.03;9.20;;;;;;;;;;5053931;28;20865;-64
2023/09/28 06:21:02;;;;;;;9.67;8.73;;;;;;;;;;5053918;28;20471;-64
2023/09/28 06:23:30;;;;;;;8.57;7.73;;;;;;;;;;5053873;28;20535;-64
2023/09/28 06:25:57;;;;;;;8.60;7.80;;;;;;;;;;5053980;28;20526;-64
2023/09/28 06:28:24;;;;;;;13.63;8.87;;;;;;;;;;5053864;28;20476;-64
2023/09/28 06:30:54;;;;;;;9.73;8.60;;;;;;;;;;5053913;28;20994;-64
2023/09/28 06:33:21;;;;;;;9.80;8.47;;;;;;;;;;5053789;28;20448;-64
2023/09/28 06:35:48;;;;;;;8.67;7.77;;;;;;;;;;5053630;28;20449;-64
2023/09/28 06:38:15;;;;;;;8.33;7.73;;;;;;;;;;5053518;28;20479;-64
2023/09/28 06:40:44;;;;;;;10.27;9.30;;;;;;;;;;5053771;28;20484;-64
2023/09/28 06:43:10;;;;;;;10.77;9.70;;;;;;;;;;5053622;28;20531;-64
2023/09/28 06:45:37;;;;;;;9.53;8.63;;;;;;;;;;5053388;28;20623;-64
2023/09/28 06:48:07;;;;;;;9.80;7.83;;;;;;;;;;5053359;28;20468;-64
2023/09/28 06:50:34;;;;;;;9.90;8.20;;;;;;;;;;5053245;28;20448;-64
2023/09/28 06:53:02;;;;;;;10.63;8.20;;;;;;;;;;5052736;28;20440;-64
2023/09/28 06:55:29;;;;;;;8.00;7.23;;;;;;;;;;5053392;28;20444;-64
2023/09/28 06:57:56;;;;;;;10.23;9.40;;;;;;;;;;5053257;28;20859;-64
2023/09/28 07:00:24;;;;;;;9.57;8.30;;;;;;;;;;5053356;28;20463;-64
2023/09/28 07:02:51;;;;;;;9.53;8.13;;;;;;;;;;5053051;28;20446;-64
2023/09/28 07:05:19;;;;;;;10.63;8.70;;;;;;;;;;5052796;28;20480;-64
2023/09/28 07:07:47;;;;;;;8.80;7.50;;;;;;;;;;5053164;28;20475;-64
2023/09/28 07:10:14;;;;;;;10.17;7.87;;;;;;;;;;5053218;28;20444;-64
2023/09/28 07:12:41;;;;;;;9.00;8.27;;;;;;;;;;5053042;28;20816;-64
2023/09/28 07:15:08;;;;;;;11.80;8.00;;;;;;;;;;5052941;28;20455;-64
2023/09/28 07:17:36;;;;;;;10.60;9.50;;;;;;;;;;5053077;28;20538;-64
2023/09/28 07:20:05;;;;;;;11.50;8.90;;;;;;;;;;5053017;28;20452;-65
2023/09/28 07:22:33;;;;;;;8.83;7.80;;;;;;;;;;5052946;28;20448;-71
2023/09/28 07:25:00;;;;;;;12.37;8.47;;;;;;;;;;5052877;28;20550;-66
2023/09/28 07:27:31;;;;;;;11.07;8.73;;;;;;;;;;5052750;28;20444;-67
2023/09/28 07:29:59;;;;;;;9.10;7.40;;;;;;;;;;5054565;28;20506;-67
2023/09/28 07:32:26;;;;;;;9.17;8.40;;;;;;;;;;5072728;28;20443;-67
2023/09/28 07:34:53;;;;;;;9.00;8.10;;;;;;;;;;5072654;28;20443;-67
2023/09/28 07:37:20;;;;;;;9.50;8.70;;;;;;;;;;5072607;28;20479;-72
2023/09/28 07:39:49;;;;;;;11.60;8.87;;;;;;;;;;5072762;28;20455;-64
2023/09/28 07:42:16;;;;;;;8.87;7.80;;;;;;;;;;5072446;28;20451;-65
2023/09/28 07:44:44;;;;;;;9.80;8.83;;;;;;;;;;5072897;28;20475;-65
2023/09/28 07:47:11;;;;;;;13.63;9.27;;;;;;;;;;5072798;28;20448;-66
2023/09/28 07:49:38;;;;;;;8.70;7.90;;;;;;;;;;5072444;28;21080;-66
2023/09/28 07:52:08;;;;;;;9.17;8.40;;;;;;;;;;5072698;28;20454;-61
2023/09/28 07:54:35;;;;;;;9.90;8.90;;;;;;;;;;5072553;28;21016;-70
2023/09/28 07:57:04;;;;;;;10.10;9.20;;;;;;;;;;5072430;28;20447;-66
2023/09/28 07:59:31;;;;;;;9.20;8.40;;;;;;;;;;5072295;28;20452;-65
2023/09/28 08:01:58;;;;;;;10.60;9.00;;;;;;;;;;5072285;28;20487;-65
2023/09/28 08:04:25;;;;;;;9.60;8.70;;;;;;;;;;5071982;28;20530;-65
2023/09/28 08:06:52;;;;;;;10.60;9.00;;;;;;;;;;5072026;28;20873;-65
2023/09/28 08:09:19;;;;;;;9.40;8.60;;;;;;;;;;5072404;28;20978;-66
2023/09/28 08:11:47;;;;;;;11.03;9.10;;;;;;;;;;5072371;28;20448;-62
2023/09/28 08:14:16;;;;;;;11.60;8.50;;;;;;;;;;5072585;28;20489;-67
2023/09/28 08:16:43;;;;;;;9.93;9.13;;;;;;;;;;5072768;28;20807;-65
2023/09/28 08:19:10;;;;;;;10.03;8.80;;;;;;;;;;5076406;28;20479;-64
2023/09/28 08:21:38;;;;;;;11.53;9.23;;;;;;;;;;5076069;28;20538;-66
2023/09/28 08:24:05;;;;;;;8.90;8.10;;;;;;;;;;5076105;28;20824;-64
2023/09/28 08:26:32;;;;;;;10.70;8.93;;;;;;;;;;5076285;28;20538;-70
2023/09/28 08:28:59;;;;;;;12.70;10.93;;;;;;;;;;5076049;28;20915;-66
2023/09/28 08:31:27;;;;;;;9.70;8.80;;;;;;;;;;5076090;28;20452;-68
2023/09/28 08:33:54;;;;;;;10.30;9.30;;;;;;;;;;5075946;28;20460;-65
2023/09/28 08:36:22;;;;;;;10.73;9.60;;;;;;;;;;5075895;28;20534;-66
2023/09/28 08:38:50;;;;;;;9.67;8.17;;;;;;;;;;5075688;28;20447;-66
2023/09/28 08:41:17;;;;;;;10.77;9.67;;;;;;;;;;5075806;28;20511;-68
2023/09/28 08:43:45;;;;;;;9.77;8.37;;;;;;;;;;5075801;28;20482;-67
2023/09/28 08:46:12;;;;;;;9.80;8.90;;;;;;;;;;5075779;28;20540;-67
2023/09/28 08:48:42;;;;;;;9.07;8.27;;;;;;;;;;5075675;28;20490;-61
2023/09/28 08:51:11;;;;;;;11.37;8.80;;;;;;;;;;5075683;28;20558;-67
2023/09/28 08:53:39;;;;;;;9.43;8.63;;;;;;;;;;5075843;28;20482;-64
2023/09/28 08:56:06;;;;;;;9.87;8.80;;;;;;;;;;5075609;28;20450;-62
2023/09/28 08:58:35;;;;;;;9.13;8.33;;;;;;;;;;5075492;28;20456;-62
2023/09/28 09:01:03;;;;;;;9.50;8.33;;;;;;;;;;5075479;28;20443;-69
2023/09/28 09:03:30;;;;;;;11.17;9.27;;;;;;;;;;5075335;28;20452;-70
2023/09/28 09:05:59;;;;;;;9.73;9.00;;;;;;;;;;5075278;28;20443;-65
2023/09/28 09:08:28;;;;;;;11.37;9.60;;;;;;;;;;5075345;28;20483;-67
2023/09/28 09:10:55;;;;;;;8.67;7.87;;;;;;;;;;5075354;28;20435;-65
2023/09/28 09:13:23;;;;;;;10.03;8.83;;;;;;;;;;5075305;28;20806;-63
2023/09/28 09:15:50;;;;;;;9.10;8.30;;;;;;;;;;5075063;28;20443;-62
2023/09/28 09:18:18;;;;;;;9.20;8.37;;;;;;;;;;5075058;28;20445;-63
2023/09/28 09:20:46;;;;;;;9.37;8.47;;;;;;;;;;5075169;28;20444;-65
2023/09/28 09:23:15;;;;;;;9.80;8.87;;;;;;;;;;5075121;28;20446;-62
2023/09/28 09:25:42;;;;;;;9.30;8.60;;;;;;;;;;5075008;28;20482;-62
2023/09/28 09:28:09;;;;;;;9.17;8.30;;;;;;;;;;5074295;28;20471;-62
2023/09/28 09:30:36;;;;;;;9.73;8.07;;;;;;;;;;5074928;28;20483;-62
2023/09/28 09:33:04;;;;;;;9.40;8.60;;;;;;;;;;5074838;28;20451;-61
2023/09/28 09:35:31;;;;;;;9.80;8.90;;;;;;;;;;5074964;28;20538;-62
2023/09/28 09:37:58;;;;;;;10.00;9.20;;;;;;;;;;5073783;28;20548;-62
2023/09/28 09:40:26;;;;;;;10.17;9.00;;;;;;;;;;5074816;28;20494;-62
2023/09/28 09:42:53;;;;;;;10.37;9.47;;;;;;;;;;5074706;28;20452;-62
2023/09/28 09:45:20;;;;;;;9.40;8.40;;;;;;;;;;5074460;28;20443;-62
2023/09/28 09:47:48;;;;;;;9.80;9.10;;;;;;;;;;5074847;28;20493;-61
2023/09/28 09:50:16;;;;;;;10.10;9.30;;;;;;;;;;5074511;28;20568;-62
2023/09/28 09:52:44;;;;;;;11.23;10.17;;;;;;;;;;5074649;28;20471;-62
2023/09/28 09:55:12;;;;;;;12.00;8.63;;;;;;;;;;5074338;28;20934;-61
2023/09/28 09:57:43;;;;;;;9.77;8.87;;;;;;;;;;5074264;28;20947;-62
2023/09/28 10:00:15;;;;;;;10.40;9.50;;;;;;;;;;5074570;28;20450;-62
2023/09/28 10:02:44;;;;;;;10.07;9.07;;;;;;;;;;5074517;28;20439;-62
2023/09/28 10:05:13;;;;;;;9.87;9.07;;;;;;;;;;5074161;28;20530;-62
2023/09/28 10:07:41;;;;;;;10.60;9.17;;;;;;;;;;5074250;28;20444;-62
2023/09/28 10:10:08;;;;;;;10.13;9.33;;;;;;;;;;5074039;28;20838;-62
2023/09/28 10:12:36;;;;;;;10.13;9.10;;;;;;;;;;5073818;28;20562;-62
2023/09/28 10:15:05;;;;;;;10.20;9.30;;;;;;;;;;5073905;28;20939;-64
2023/09/28 10:17:32;;;;;;;10.83;9.20;;;;;;;;;;5074022;28;20544;-66
2023/09/28 10:20:00;;;;;;;10.77;9.50;;;;;;;;;;5073964;28;20462;-66
2023/09/28 10:22:28;;;;;;;10.77;9.80;;;;;;;;;;5073850;28;20455;-66
2023/09/28 10:24:54;;;;;;;11.90;8.83;;;;;;;;;;5073796;28;20517;-68
2023/09/28 10:27:21;;;;;;;11.97;9.00;;;;;;;;;;5073929;28;20439;-66
2023/09/28 10:29:49;;;;;;;9.80;8.90;;;;;;;;;;5073406;28;20812;-66
2023/09/28 10:32:29;;;;;;;9.93;9.03;;;;;;;;;;5073698;28;20633;-60
2023/09/28 10:35:14;;;;;;;12.93;9.40;;;;;;;;;;5073754;28;20439;-65
2023/09/28 10:37:41;;;;;;;9.73;8.80;;;;;;;;;;5073355;28;20549;-65
2023/09/28 10:40:09;;;;;;;9.13;8.33;;;;;;;;;;5072568;28;20483;-65
2023/09/28 10:42:36;;;;;;;11.33;9.47;;;;;;;;;;5073632;28;20455;-66
2023/09/28 10:45:06;;;;;;;8.73;7.93;;;;;;;;;;5073427;28;20488;-65
2023/09/28 10:47:37;;;;;;;9.77;8.87;;;;;;;;;;5073287;28;20439;-66
2023/09/28 10:50:05;;;;;;;12.13;9.90;;;;;;;;;;5073250;28;20483;-66
2023/09/28 10:52:32;;;;;;;12.43;8.27;;;;;;;;;;5073378;28;20471;-66
2023/09/28 10:55:00;;;;;;;13.73;9.20;;;;;;;;;;5073313;28;20891;-65
2023/09/28 10:57:31;;;;;;;9.97;8.80;;;;;;;;;;5073169;28;20449;-66
2023/09/28 11:00:00;;;;;;;9.80;8.90;;;;;;;;;;5073164;28;20456;-62
2023/09/28 11:02:26;;;;;;;9.30;8.50;;;;;;;;;;5073104;28;20451;-67
2023/09/28 11:04:55;;;;;;;9.73;8.90;;;;;;;;;;5073147;28;20514;-68
2023/09/28 11:07:22;;;;;;;9.87;8.97;;;;;;;;;;5073164;28;20853;-65
2023/09/28 11:09:49;;;;;;;9.63;8.73;;;;;;;;;;5072936;28;20998;-65
2023/09/28 11:12:16;;;;;;;8.90;8.00;;;;;;;;;;5073156;28;20471;-65
2023/09/28 11:14:43;;;;;;;10.50;9.50;;;;;;;;;;5073027;28;20457;-64
2023/09/28 11:17:10;;;;;;;9.10;8.27;;;;;;;;;;5072875;28;20451;-66
2023/09/28 11:19:37;;;;;;;9.40;8.60;;;;;;;;;;5073249;28;20854;-67
2023/09/28 11:22:05;;;;;;;13.63;8.17;;;;;;;;;;5073070;28;20486;-66
2023/09/28 11:24:33;;;;;;;7.80;7.10;;;;;;;;;;5073034;28;20452;-65
2023/09/28 11:27:00;;;;;;;6.43;5.93;;;;;;;;;;5072930;28;20447;-67
2023/09/28 11:29:27;;;;;;;6.27;5.60;;;;;;;;;;5072669;28;20475;-66
2023/09/28 11:31:54;;;;;;;7.03;6.20;;;;;;;;;;5072782;28;20895;-65
2023/09/28 11:34:30;;;;;;;5.80;5.23;;;;;;;;;;5072920;28;20450;-66
2023/09/28 11:36:58;;;;;;;6.87;6.13;;;;;;;;;;5072463;28;20982;-65
2023/09/28 11:39:26;;;;;;;7.53;5.40;;;;;;;;;;5072849;28;20819;-63
2023/09/28 11:41:57;;;;;;;6.17;5.57;;;;;;;;;;5072375;28;21006;-63
2023/09/28 11:44:26;;;;;;;5.77;5.27;;;;;;;;;;5072965;28;20467;-63
2023/09/28 11:46:53;;;;;;;6.10;5.60;;;;;;;;;;5072946;28;20451;-63
2023/09/28 11:49:21;;;;;;;5.67;5.27;;;;;;;;;;5072654;28;20454;-62
2023/09/28 11:51:48;;;;;;;6.43;5.93;;;;;;;;;;5074944;28;20507;-63
2023/09/28 11:54:16;;;;;;;5.33;5.00;;;;;;;;;;5076834;28;20443;-63
2023/09/28 11:56:45;;;;;;;5.90;5.53;;;;;;;;;;5076659;28;20454;-63
2023/09/28 11:59:15;;;;;;;5.97;5.17;;;;;;;;;;5076724;28;20906;-63
2023/09/28 12:01:42;;;;;;;6.03;5.50;;;;;;;;;;5076781;28;20447;-63
2023/09/28 12:04:09;;;;;;;6.10;5.30;;;;;;;;;;5076579;28;20445;-63
2023/09/28 12:06:37;;;;;;;5.87;5.30;;;;;;;;;;5076726;28;20962;-63
2023/09/28 12:09:05;;;;;;;7.50;6.90;;;;;;;;;;5076471;28;20823;-63
2023/09/28 12:11:32;;;;;;;6.63;5.93;;;;;;;;;;5076448;28;20545;-63
2023/09/28 12:14:00;;;;;;;7.70;6.00;;;;;;;;;;5076383;28;20492;-63
2023/09/28 12:16:27;;;;;;;6.10;5.60;;;;;;;;;;5076405;28;20443;-62
2023/09/28 12:18:54;;;;;;;6.80;6.10;;;;;;;;;;5076340;28;20526;-63
2023/09/28 12:21:21;;;;;;;6.97;6.30;;;;;;;;;;5076206;28;20537;-63
2023/09/28 12:23:48;;;;;;;6.13;5.40;;;;;;;;;;5076119;28;20459;-63
2023/09/28 12:26:16;;;;;;;7.33;6.47;;;;;;;;;;5076156;28;20443;-63
2023/09/28 12:28:43;;;;;;;8.17;6.00;;;;;;;;;;5076437;28;20458;-62
2023/09/28 12:31:12;;;;;;;5.90;5.40;;;;;;;;;;5076058;28;20482;-63
2023/09/28 12:33:39;;;;;;;6.60;6.10;;;;;;;;;;5076050;28;20832;-63
2023/09/28 12:36:06;;;;;;;5.40;4.93;;;;;;;;;;5075934;28;20444;-63
2023/09/28 12:38:33;;;;;;;7.10;5.17;;;;;;;;;;5075555;28;20566;-63
2023/09/28 12:41:03;;;;;;;5.17;4.80;;;;;;;;;;5075977;28;20447;-63
2023/09/28 12:43:31;;;;;;;6.20;4.83;;;;;;;;;;5075813;28;20448;-63
2023/09/28 12:45:58;;;;;;;13.30;5.97;;;;;;;;;;5075731;28;20551;-62
2023/09/28 12:48:26;;;;;;;5.80;5.40;;;;;;;;;;5075564;28;20451;-63
2023/09/28 12:50:54;;;;;;;5.53;5.13;;;;;;;;;;5075540;28;20574;-63
2023/09/28 12:53:21;;;;;;;4.87;4.53;;;;;;;;;;5075829;28;20443;-63
2023/09/28 12:55:49;;;;;;;7.00;5.40;;;;;;;;;;5075471;28;20923;-63
2023/09/28 12:58:16;;;;;;;8.70;4.70;;;;;;;;;;5075576;28;20930;-63
2023/09/28 13:00:44;;;;;;;6.53;5.97;;;;;;;;;;5075654;28;20486;-63
2023/09/28 13:03:11;;;;;;;5.60;5.10;;;;;;;;;;5074547;28;20943;-63
2023/09/28 13:05:41;;;;;;;5.10;4.60;;;;;;;;;;5075533;28;20482;-63
2023/09/28 13:08:08;;;;;;;5.83;5.43;;;;;;;;;;5075519;28;20815;-63
2023/09/28 13:10:35;;;;;;;5.30;4.90;;;;;;;;;;5075264;28;20486;-62
2023/09/28 13:13:05;;;;;;;6.40;5.40;;;;;;;;;;5075405;28;20452;-63
2023/09/28 13:15:32;;;;;;;5.97;5.47;;;;;;;;;;5075291;28;20447;-62
2023/09/28 13:18:00;;;;;;;5.60;5.00;;;;;;;;;;5075095;28;20994;-63
2023/09/28 13:20:28;;;;;;;6.80;5.27;;;;;;;;;;5075341;28;20800;-63
2023/09/28 13:22:57;;;;;;;5.40;4.90;;;;;;;;;;5075285;28;20538;-63
2023/09/28 13:25:24;;;;;;;6.03;4.83;;;;;;;;;;5075148;28;20443;-63
2023/09/28 13:27:52;;;;;;;6.20;5.70;;;;;;;;;;5075324;28;20842;-63
2023/09/28 13:30:22;;;;;;;5.10;4.03;;;;;;;;;;5074796;28;20967;-63
2023/09/28 13:32:49;;;;;;;5.40;4.90;;;;;;;;;;5075175;28;20439;-63
2023/09/28 13:35:16;;;;;;;5.87;5.47;;;;;;;;;;5075018;28;20501;-62
2023/09/28 13:37:43;;;;;;;6.87;4.83;;;;;;;;;;5074635;28;20467;-62
2023/09/28 13:40:20;;;;;;;7.37;4.73;;;;;;;;;;5074805;28;20444;-63
2023/09/28 13:42:49;;;;;;;5.13;4.63;;;;;;;;;;5074808;28;20446;-63
2023/09/28 13:45:17;;;;;;;5.40;4.90;;;;;;;;;;5074910;28;20482;-63
2023/09/28 13:47:44;;;;;;;5.40;5.00;;;;;;;;;;5074786;28;20902;-63
2023/09/28 13:50:11;;;;;;;5.70;4.90;;;;;;;;;;5074742;28;20489;-63
2023/09/28 13:52:38;;;;;;;7.10;4.60;;;;;;;;;;5074562;28;20444;-63
2023/09/28 13:55:06;;;;;;;5.43;4.67;;;;;;;;;;5074993;28;20826;-63
2023/09/28 13:57:34;;;;;;;5.70;5.20;;;;;;;;;;5074464;28;20455;-63
2023/09/28 14:00:06;;;;;;;4.83;4.37;;;;;;;;;;5074349;28;20942;-63
2023/09/28 14:02:33;;;;;;;4.40;4.10;;;;;;;;;;5074484;28;20448;-63
2023/09/28 14:05:00;;;;;;;4.90;4.50;;;;;;;;;;5074751;28;20486;-63
2023/09/28 14:07:27;;;;;;;5.43;4.93;;;;;;;;;;5074298;28;20447;-63
2023/09/28 14:09:55;;;;;;;5.47;4.20;;;;;;;;;;5074136;28;20547;-63
2023/09/28 14:12:23;;;;;;;5.03;4.50;;;;;;;;;;5074357;28;20470;-63
2023/09/28 14:14:52;;;;;;;5.97;4.60;;;;;;;;;;5074219;28;20473;-63
2023/09/28 14:17:20;;;;;;;4.73;4.37;;;;;;;;;;5074140;28;20439;-63
2023/09/28 14:19:47;;;;;;;5.50;4.67;;;;;;;;;;5074117;28;20486;-63
2023/09/28 14:22:14;;;;;;;5.33;4.80;;;;;;;;;;5073931;28;20542;-62
2023/09/28 14:24:40;;;;;;;5.30;5.00;;;;;;;;;;5073873;28;20893;-63
2023/09/28 14:27:08;;;;;;;5.67;5.23;;;;;;;;;;5073990;28;20443;-62
2023/09/28 14:29:37;;;;;;;5.67;5.17;;;;;;;;;;5073916;28;20440;-63
2023/09/28 14:32:06;;;;;;;6.07;5.57;;;;;;;;;;5073805;28;20486;-63
2023/09/28 14:34:32;;;;;;;6.70;5.00;;;;;;;;;;5073554;28;20439;-62